Time;durP1;ratioP1;P1;durP2;ratioP2;P2;SDS_P1;SDS_P2;PMS_P1;PMS_P2;Temp;Humidity;BMP_temperature;BMP_pressure;BME280_temperature;BME280_humidity;BME280_pressure;Samples;Min_cycle;Max_cycle;Signal;HPM_P1;HPM_P2
2023/09/07 00:00:05;;;;;;;4.95;4.22;;;;;;;;;;490130;28;1268;-83
2023/09/07 00:00:20;;;;;;;5.85;4.20;;;;;;;;;;490098;29;1413;-82
2023/09/07 00:00:36;;;;;;;5.77;4.20;;;;;;;;;;490491;28;1122;-82
2023/09/07 00:00:51;;;;;;;4.43;3.83;;;;;;;;;;493049;28;1028;-83
2023/09/07 00:01:07;;;;;;;5.10;3.90;;;;;;;;;;491768;28;1107;-82
2023/09/07 00:01:22;;;;;;;4.90;4.00;;;;;;;;;;492318;28;1401;-82
2023/09/07 00:01:38;;;;;;;4.25;3.85;;;;;;;;;;491184;28;1077;-83
2023/09/07 00:01:54;;;;;;;4.37;3.87;;;;;;;;;;495320;28;1356;-83
2023/09/07 00:02:10;;;;;;;4.68;4.05;;;;;;;;;;491421;28;1297;-82
2023/09/07 00:02:25;;;;;;;4.30;3.90;;;;;;;;;;490533;28;963;-83
2023/09/07 00:02:41;;;;;;;5.05;3.90;;;;;;;;;;491245;28;1273;-83
2023/09/07 00:02:57;;;;;;;6.87;4.30;;;;;;;;;;493169;28;1062;-83
2023/09/07 00:03:13;;;;;;;7.13;4.13;;;;;;;;;;493561;28;1129;-82
2023/09/07 00:03:29;;;;;;;5.93;3.95;;;;;;;;;;493845;28;1177;-83
2023/09/07 00:03:47;;;;;;;4.60;4.00;;;;;;;;;;493435;28;1133;-82
2023/09/07 00:04:03;;;;;;;4.53;3.92;;;;;;;;;;497447;28;1341;-82
2023/09/07 00:04:20;;;;;;;5.20;4.00;;;;;;;;;;494559;28;1327;-82
2023/09/07 00:04:35;;;;;;;5.60;4.07;;;;;;;;;;495748;28;1419;-82
2023/09/07 00:04:52;;;;;;;5.13;4.10;;;;;;;;;;495149;28;1344;-84
2023/09/07 00:05:08;;;;;;;5.93;4.35;;;;;;;;;;492377;28;1369;-83
2023/09/07 00:05:24;;;;;;;5.75;4.22;;;;;;;;;;493182;28;1105;-82
2023/09/07 00:05:39;;;;;;;5.43;4.00;;;;;;;;;;491074;29;1127;-82
2023/09/07 00:05:54;;;;;;;5.87;3.90;;;;;;;;;;491561;29;1302;-82
2023/09/07 00:06:10;;;;;;;5.25;3.80;;;;;;;;;;498345;28;1116;-83
2023/09/07 00:06:26;;;;;;;5.33;3.97;;;;;;;;;;496545;28;1085;-82
2023/09/07 00:06:43;;;;;;;4.82;3.90;;;;;;;;;;496158;28;1144;-82
2023/09/07 00:07:00;;;;;;;4.35;3.95;;;;;;;;;;493783;28;1402;-83
2023/09/07 00:07:16;;;;;;;4.60;4.07;;;;;;;;;;487739;28;1458;-83
2023/09/07 00:07:31;;;;;;;5.22;4.07;;;;;;;;;;487567;29;1240;-83
2023/09/07 00:07:47;;;;;;;5.77;4.17;;;;;;;;;;490319;28;1462;-82
2023/09/07 00:08:02;;;;;;;5.82;4.20;;;;;;;;;;490788;29;1200;-83
2023/09/07 00:08:18;;;;;;;5.47;4.07;;;;;;;;;;491109;29;1124;-82
2023/09/07 00:08:34;;;;;;;5.05;3.83;;;;;;;;;;489496;29;1333;-83
2023/09/07 00:08:50;;;;;;;4.90;4.10;;;;;;;;;;491281;28;1244;-83
2023/09/07 00:09:06;;;;;;;6.90;4.30;;;;;;;;;;487441;28;1175;-83
2023/09/07 00:09:23;;;;;;;6.75;4.10;;;;;;;;;;488922;29;1150;-82
2023/09/07 00:09:38;;;;;;;5.03;4.00;;;;;;;;;;487421;29;1129;-83
2023/09/07 00:09:54;;;;;;;6.33;4.17;;;;;;;;;;491017;28;1240;-82
2023/09/07 00:10:10;;;;;;;5.78;4.25;;;;;;;;;;488832;29;1304;-83
2023/09/07 00:10:26;;;;;;;4.53;4.13;;;;;;;;;;491924;29;1214;-83
2023/09/07 00:10:41;;;;;;;4.95;4.03;;;;;;;;;;492685;28;1018;-82
2023/09/07 00:11:03;;;;;;;5.13;4.00;;;;;;;;;;492985;28;1158;-82
2023/09/07 00:11:18;;;;;;;5.25;3.90;;;;;;;;;;489929;28;1176;-83
2023/09/07 00:11:34;;;;;;;6.23;4.33;;;;;;;;;;488751;29;1275;-83
2023/09/07 00:11:49;;;;;;;5.95;4.30;;;;;;;;;;488829;28;1207;-83
2023/09/07 00:12:05;;;;;;;5.57;4.40;;;;;;;;;;489186;29;1347;-83
2023/09/07 00:12:21;;;;;;;5.13;4.10;;;;;;;;;;490331;28;1161;-83
2023/09/07 00:12:39;;;;;;;5.20;3.88;;;;;;;;;;489064;28;950;-83
2023/09/07 00:12:54;;;;;;;4.68;4.07;;;;;;;;;;491506;28;1250;-82
2023/09/07 00:13:10;;;;;;;4.60;4.00;;;;;;;;;;489579;28;1344;-83
2023/09/07 00:13:26;;;;;;;5.25;4.03;;;;;;;;;;493855;28;1076;-83
2023/09/07 00:13:42;;;;;;;7.10;4.10;;;;;;;;;;491150;28;967;-83
2023/09/07 00:13:59;;;;;;;5.82;3.95;;;;;;;;;;491208;28;2009;-83
2023/09/07 00:14:15;;;;;;;4.47;3.90;;;;;;;;;;489597;29;1289;-82
2023/09/07 00:14:31;;;;;;;5.28;4.28;;;;;;;;;;490950;28;1065;-83
2023/09/07 00:14:46;;;;;;;5.38;4.55;;;;;;;;;;490955;28;1062;-83
2023/09/07 00:15:03;;;;;;;5.17;4.10;;;;;;;;;;495386;28;1203;-83
2023/09/07 00:15:20;;;;;;;4.43;3.90;;;;;;;;;;497503;28;1105;-84
2023/09/07 00:15:37;;;;;;;4.53;3.90;;;;;;;;;;496671;28;1039;-82
2023/09/07 00:15:53;;;;;;;4.45;3.90;;;;;;;;;;494822;28;1222;-83
2023/09/07 00:16:08;;;;;;;5.82;4.18;;;;;;;;;;487905;28;1089;-83
2023/09/07 00:16:24;;;;;;;5.40;3.90;;;;;;;;;;489466;28;1048;-83
2023/09/07 00:16:40;;;;;;;4.18;3.70;;;;;;;;;;489758;29;944;-82
2023/09/07 00:16:57;;;;;;;5.00;3.97;;;;;;;;;;491715;28;1558;-83
2023/09/07 00:17:13;;;;;;;5.88;4.18;;;;;;;;;;499609;28;1163;-83
2023/09/07 00:17:28;;;;;;;6.57;4.18;;;;;;;;;;499033;28;1324;-83
2023/09/07 00:17:45;;;;;;;5.50;4.23;;;;;;;;;;498574;28;1010;-82
2023/09/07 00:18:00;;;;;;;4.45;4.05;;;;;;;;;;502517;28;1240;-82
2023/09/07 00:18:17;;;;;;;5.25;4.25;;;;;;;;;;503234;28;1172;-82
2023/09/07 00:18:33;;;;;;;5.15;4.30;;;;;;;;;;492801;28;1066;-83
2023/09/07 00:18:49;;;;;;;5.60;4.20;;;;;;;;;;489795;28;1398;-83
2023/09/07 00:19:05;;;;;;;5.95;4.05;;;;;;;;;;489353;29;1186;-83
2023/09/07 00:19:20;;;;;;;4.93;4.00;;;;;;;;;;494383;28;1144;-82
2023/09/07 00:19:36;;;;;;;4.95;4.18;;;;;;;;;;492121;28;1448;-83
2023/09/07 00:19:52;;;;;;;5.32;4.13;;;;;;;;;;491875;28;1315;-83
2023/09/07 00:20:11;;;;;;;5.70;4.00;;;;;;;;;;486813;28;1255;-82
2023/09/07 00:20:26;;;;;;;5.35;3.88;;;;;;;;;;487962;28;1634;-82
2023/09/07 00:20:42;;;;;;;6.45;4.13;;;;;;;;;;487593;28;1074;-82
2023/09/07 00:20:58;;;;;;;5.50;4.28;;;;;;;;;;490741;28;1174;-83
2023/09/07 00:21:14;;;;;;;4.50;4.05;;;;;;;;;;489236;29;1070;-83
2023/09/07 00:21:30;;;;;;;4.80;3.90;;;;;;;;;;490524;28;1204;-82
2023/09/07 00:21:46;;;;;;;4.53;3.85;;;;;;;;;;488940;28;1212;-83
2023/09/07 00:22:01;;;;;;;4.77;4.00;;;;;;;;;;492232;28;1206;-82
2023/09/07 00:22:17;;;;;;;5.45;4.25;;;;;;;;;;491077;29;1228;-84
2023/09/07 00:22:33;;;;;;;5.15;4.28;;;;;;;;;;490463;29;1319;-82
2023/09/07 00:22:48;;;;;;;4.80;4.30;;;;;;;;;;489893;28;1358;-83
2023/09/07 00:23:04;;;;;;;4.93;4.10;;;;;;;;;;488526;29;1234;-82
2023/09/07 00:23:21;;;;;;;4.78;4.00;;;;;;;;;;488857;28;1187;-83
2023/09/07 00:23:36;;;;;;;4.80;4.20;;;;;;;;;;492295;28;1082;-83
2023/09/07 00:23:52;;;;;;;4.60;3.95;;;;;;;;;;491114;28;1354;-83
2023/09/07 00:24:08;;;;;;;4.30;3.80;;;;;;;;;;487540;28;1258;-83
2023/09/07 00:24:23;;;;;;;4.60;4.03;;;;;;;;;;488988;28;1156;-83
2023/09/07 00:24:39;;;;;;;4.78;4.10;;;;;;;;;;489473;29;1305;-83
2023/09/07 00:24:54;;;;;;;4.67;4.17;;;;;;;;;;490527;28;1406;-82
2023/09/07 00:25:10;;;;;;;4.82;4.35;;;;;;;;;;492591;28;1242;-83
2023/09/07 00:25:25;;;;;;;5.30;4.33;;;;;;;;;;494189;28;1058;-83
2023/09/07 00:25:41;;;;;;;5.25;4.30;;;;;;;;;;494147;28;1303;-82
2023/09/07 00:25:56;;;;;;;4.70;4.20;;;;;;;;;;490958;28;1364;-83
2023/09/07 00:26:12;;;;;;;4.57;4.00;;;;;;;;;;491317;28;977;-83
2023/09/07 00:26:27;;;;;;;5.38;4.15;;;;;;;;;;490981;28;1260;-83
2023/09/07 00:26:45;;;;;;;5.83;4.30;;;;;;;;;;491974;28;954;-83
2023/09/07 00:27:00;;;;;;;5.05;4.10;;;;;;;;;;489823;29;1188;-83
2023/09/07 00:27:18;;;;;;;5.20;4.25;;;;;;;;;;490324;28;1093;-82
2023/09/07 00:27:34;;;;;;;5.75;4.28;;;;;;;;;;488948;28;1405;-83
2023/09/07 00:27:50;;;;;;;5.35;4.10;;;;;;;;;;499420;28;1139;-82
2023/09/07 00:28:05;;;;;;;5.45;4.10;;;;;;;;;;499282;28;1118;-81
2023/09/07 00:28:22;;;;;;;5.57;4.20;;;;;;;;;;497044;28;1103;-82
2023/09/07 00:28:38;;;;;;;4.80;4.03;;;;;;;;;;499166;28;977;-83
2023/09/07 00:28:54;;;;;;;4.40;3.90;;;;;;;;;;500034;28;1157;-82
2023/09/07 00:29:09;;;;;;;4.20;3.80;;;;;;;;;;498513;28;1312;-83
2023/09/07 00:29:25;;;;;;;4.35;3.90;;;;;;;;;;500281;28;943;-82
2023/09/07 00:29:40;;;;;;;4.87;4.17;;;;;;;;;;501218;28;1112;-83
2023/09/07 00:29:56;;;;;;;4.95;4.22;;;;;;;;;;501620;28;1275;-83
2023/09/07 00:30:12;;;;;;;4.78;4.20;;;;;;;;;;501239;28;999;-83
2023/09/07 00:30:28;;;;;;;5.90;4.20;;;;;;;;;;500136;28;1446;-82
2023/09/07 00:30:44;;;;;;;6.20;4.28;;;;;;;;;;500832;28;1472;-82
2023/09/07 00:31:00;;;;;;;5.18;4.20;;;;;;;;;;500375;28;1619;-84
2023/09/07 00:31:15;;;;;;;4.93;3.93;;;;;;;;;;497343;28;994;-82
2023/09/07 00:31:31;;;;;;;4.47;3.92;;;;;;;;;;500213;28;1228;-83
2023/09/07 00:31:46;;;;;;;5.07;4.10;;;;;;;;;;499285;28;1212;-83
2023/09/07 00:32:02;;;;;;;5.10;4.10;;;;;;;;;;502712;28;1145;-82
2023/09/07 00:32:18;;;;;;;4.55;4.05;;;;;;;;;;499161;28;1269;-82
2023/09/07 00:32:36;;;;;;;5.93;4.27;;;;;;;;;;499988;28;1130;-82
2023/09/07 00:32:51;;;;;;;6.13;4.10;;;;;;;;;;501877;28;935;-83
2023/09/07 00:33:07;;;;;;;5.07;4.15;;;;;;;;;;501430;28;1163;-82
2023/09/07 00:33:23;;;;;;;5.40;4.40;;;;;;;;;;500198;28;1366;-83
2023/09/07 00:33:38;;;;;;;5.60;4.50;;;;;;;;;;498879;28;1072;-82
2023/09/07 00:33:54;;;;;;;5.07;4.28;;;;;;;;;;500929;28;1950;-81
2023/09/07 00:34:09;;;;;;;5.20;4.10;;;;;;;;;;498499;28;1271;-82
2023/09/07 00:34:26;;;;;;;6.22;4.30;;;;;;;;;;501642;28;1160;-82
2023/09/07 00:34:42;;;;;;;5.67;4.30;;;;;;;;;;499358;28;950;-83
2023/09/07 00:34:57;;;;;;;4.63;4.13;;;;;;;;;;499369;28;1128;-82
2023/09/07 00:35:13;;;;;;;5.10;4.15;;;;;;;;;;497110;28;1245;-83
2023/09/07 00:35:28;;;;;;;5.27;4.20;;;;;;;;;;495920;28;1160;-83
2023/09/07 00:35:44;;;;;;;6.13;4.20;;;;;;;;;;495839;28;1156;-83
2023/09/07 00:36:02;;;;;;;6.67;4.10;;;;;;;;;;498279;28;1248;-83
2023/09/07 00:36:18;;;;;;;5.13;4.00;;;;;;;;;;496857;28;1246;-83
2023/09/07 00:36:33;;;;;;;4.50;4.05;;;;;;;;;;496228;28;1218;-83
2023/09/07 00:36:49;;;;;;;4.70;3.92;;;;;;;;;;497986;28;1109;-82
2023/09/07 00:37:04;;;;;;;4.50;3.90;;;;;;;;;;500606;28;1170;-83
2023/09/07 00:37:20;;;;;;;4.63;4.13;;;;;;;;;;500352;28;1304;-83
2023/09/07 00:37:37;;;;;;;4.87;3.97;;;;;;;;;;500800;28;1030;-82
2023/09/07 00:37:54;;;;;;;4.90;3.88;;;;;;;;;;500778;28;1278;-82
2023/09/07 00:38:11;;;;;;;6.50;4.35;;;;;;;;;;497262;28;1224;-83
2023/09/07 00:38:27;;;;;;;5.90;4.40;;;;;;;;;;498222;28;1089;-82
2023/09/07 00:38:42;;;;;;;4.65;4.00;;;;;;;;;;498276;28;1024;-83
2023/09/07 00:38:58;;;;;;;5.67;3.93;;;;;;;;;;497292;28;1170;-84
2023/09/07 00:39:13;;;;;;;6.03;4.20;;;;;;;;;;499519;28;1071;-82
2023/09/07 00:39:29;;;;;;;4.87;4.10;;;;;;;;;;500922;28;1445;-83
2023/09/07 00:39:44;;;;;;;4.38;3.97;;;;;;;;;;499758;28;1023;-82
2023/09/07 00:40:01;;;;;;;4.97;4.05;;;;;;;;;;499421;28;1204;-83
2023/09/07 00:40:17;;;;;;;5.82;4.22;;;;;;;;;;498669;28;1156;-83
2023/09/07 00:40:32;;;;;;;4.70;4.20;;;;;;;;;;499395;28;1329;-82
2023/09/07 00:40:48;;;;;;;4.53;4.13;;;;;;;;;;494793;28;1102;-82
2023/09/07 00:41:04;;;;;;;4.60;4.20;;;;;;;;;;493958;28;939;-82
2023/09/07 00:41:19;;;;;;;4.90;4.13;;;;;;;;;;498105;28;1085;-83
2023/09/07 00:41:35;;;;;;;4.97;4.03;;;;;;;;;;497855;28;1497;-82
2023/09/07 00:41:51;;;;;;;5.33;4.07;;;;;;;;;;501416;28;1281;-82
2023/09/07 00:42:06;;;;;;;5.75;4.20;;;;;;;;;;500564;28;1394;-82
2023/09/07 00:42:22;;;;;;;5.63;4.13;;;;;;;;;;499636;28;1261;-82
2023/09/07 00:42:37;;;;;;;5.07;3.92;;;;;;;;;;499531;28;954;-82
2023/09/07 00:42:53;;;;;;;5.07;4.10;;;;;;;;;;500109;28;1178;-82
2023/09/07 00:43:09;;;;;;;5.32;4.20;;;;;;;;;;498153;28;1112;-83
2023/09/07 00:43:24;;;;;;;5.70;3.88;;;;;;;;;;500006;28;1300;-82
2023/09/07 00:43:41;;;;;;;7.33;3.90;;;;;;;;;;499949;28;1458;-83
2023/09/07 00:43:57;;;;;;;7.07;4.18;;;;;;;;;;501949;28;974;-82
2023/09/07 00:44:12;;;;;;;5.63;4.10;;;;;;;;;;501865;28;1153;-82
2023/09/07 00:44:28;;;;;;;5.33;4.07;;;;;;;;;;500491;28;1108;-82
2023/09/07 00:44:43;;;;;;;4.97;4.05;;;;;;;;;;499825;28;1292;-83
2023/09/07 00:44:59;;;;;;;4.80;4.03;;;;;;;;;;498809;28;1221;-83
2023/09/07 00:45:15;;;;;;;4.80;4.30;;;;;;;;;;499893;28;1044;-83
2023/09/07 00:45:31;;;;;;;4.90;4.20;;;;;;;;;;501517;28;1425;-83
2023/09/07 00:45:46;;;;;;;5.78;4.13;;;;;;;;;;500686;28;1314;-82
2023/09/07 00:46:02;;;;;;;6.00;4.07;;;;;;;;;;502928;28;1028;-82
2023/09/07 00:46:18;;;;;;;6.55;4.25;;;;;;;;;;502136;28;1402;-83
2023/09/07 00:46:33;;;;;;;6.57;4.18;;;;;;;;;;502897;28;1048;-82
2023/09/07 00:46:49;;;;;;;5.40;3.93;;;;;;;;;;499823;28;1060;-82
2023/09/07 00:47:05;;;;;;;4.80;3.90;;;;;;;;;;500077;28;1265;-82
2023/09/07 00:47:22;;;;;;;5.13;4.07;;;;;;;;;;501134;28;1404;-82
2023/09/07 00:47:38;;;;;;;4.80;4.03;;;;;;;;;;500321;28;943;-82
2023/09/07 00:47:53;;;;;;;4.65;4.00;;;;;;;;;;501210;28;983;-83
2023/09/07 00:48:11;;;;;;;4.23;3.83;;;;;;;;;;500139;28;963;-82
2023/09/07 00:48:27;;;;;;;4.10;3.70;;;;;;;;;;503689;28;1109;-83
2023/09/07 00:48:42;;;;;;;4.40;4.00;;;;;;;;;;502114;28;1135;-83
2023/09/07 00:48:58;;;;;;;4.67;4.10;;;;;;;;;;502797;28;1179;-83
2023/09/07 00:49:14;;;;;;;5.40;4.10;;;;;;;;;;502302;28;877;-83
2023/09/07 00:49:29;;;;;;;5.97;4.13;;;;;;;;;;503748;28;1176;-82
2023/09/07 00:49:45;;;;;;;5.20;3.93;;;;;;;;;;500802;28;1303;-83
2023/09/07 00:50:02;;;;;;;4.30;3.90;;;;;;;;;;498111;28;1287;-83
2023/09/07 00:50:18;;;;;;;4.30;3.83;;;;;;;;;;496474;28;1370;-83
2023/09/07 00:50:35;;;;;;;4.72;3.80;;;;;;;;;;497650;28;1102;-82
2023/09/07 00:50:50;;;;;;;5.07;3.90;;;;;;;;;;501003;28;1203;-83
2023/09/07 00:51:06;;;;;;;4.70;4.20;;;;;;;;;;500988;28;1214;-83
2023/09/07 00:51:22;;;;;;;4.70;4.20;;;;;;;;;;500851;28;1553;-83
2023/09/07 00:51:39;;;;;;;4.57;4.10;;;;;;;;;;499106;28;1412;-82
2023/09/07 00:51:55;;;;;;;4.82;4.13;;;;;;;;;;499953;28;1076;-83
2023/09/07 00:52:10;;;;;;;5.60;4.00;;;;;;;;;;501540;28;1166;-82
2023/09/07 00:52:27;;;;;;;5.65;4.03;;;;;;;;;;503488;28;1253;-83
2023/09/07 00:52:43;;;;;;;4.63;4.10;;;;;;;;;;501668;28;1484;-83
2023/09/07 00:53:02;;;;;;;4.53;4.10;;;;;;;;;;502248;28;1062;-82
2023/09/07 00:53:19;;;;;;;5.47;4.05;;;;;;;;;;502366;28;1542;-82
2023/09/07 00:53:34;;;;;;;4.85;3.97;;;;;;;;;;502734;28;1092;-82
2023/09/07 00:53:52;;;;;;;4.40;4.00;;;;;;;;;;500767;28;2532;-83
2023/09/07 00:54:07;;;;;;;4.57;4.03;;;;;;;;;;502560;28;985;-83
2023/09/07 00:54:24;;;;;;;5.27;4.10;;;;;;;;;;500608;28;1134;-82
2023/09/07 00:54:41;;;;;;;5.65;4.10;;;;;;;;;;499449;28;1093;-76
2023/09/07 00:54:57;;;;;;;5.30;4.00;;;;;;;;;;500811;28;1181;-76
2023/09/07 00:55:13;;;;;;;5.18;4.00;;;;;;;;;;497626;28;1078;-76
2023/09/07 00:55:32;;;;;;;5.32;3.90;;;;;;;;;;499220;28;1259;-76
2023/09/07 00:55:48;;;;;;;5.00;3.95;;;;;;;;;;498856;28;1253;-76
2023/09/07 00:56:04;;;;;;;4.97;4.00;;;;;;;;;;497876;28;1203;-76
2023/09/07 00:56:19;;;;;;;4.70;3.63;;;;;;;;;;500636;28;1110;-76
2023/09/07 00:56:39;;;;;;;4.90;3.63;;;;;;;;;;501119;28;1152;-76
2023/09/07 00:56:55;;;;;;;4.32;3.67;;;;;;;;;;499537;28;1290;-76
2023/09/07 00:57:10;;;;;;;4.60;3.80;;;;;;;;;;502579;28;1334;-76
2023/09/07 00:57:26;;;;;;;4.63;3.67;;;;;;;;;;503202;28;1550;-76
2023/09/07 00:57:42;;;;;;;5.00;3.90;;;;;;;;;;501938;28;1174;-77
2023/09/07 00:57:58;;;;;;;5.38;4.25;;;;;;;;;;503532;28;1161;-77
2023/09/07 00:58:13;;;;;;;5.10;4.17;;;;;;;;;;502869;28;1194;-76
2023/09/07 00:58:29;;;;;;;4.45;3.80;;;;;;;;;;502677;28;1163;-76
2023/09/07 00:58:45;;;;;;;4.10;3.70;;;;;;;;;;500368;28;1258;-76
2023/09/07 00:59:02;;;;;;;4.15;3.75;;;;;;;;;;497359;28;1293;-76
2023/09/07 00:59:18;;;;;;;4.22;3.83;;;;;;;;;;496642;28;1540;-77
2023/09/07 00:59:34;;;;;;;5.60;3.90;;;;;;;;;;494639;28;975;-76
2023/09/07 00:59:50;;;;;;;6.00;4.10;;;;;;;;;;492296;28;1264;-76
2023/09/07 01:00:07;;;;;;;6.60;4.17;;;;;;;;;;496026;28;1227;-83
2023/09/07 01:00:23;;;;;;;6.30;4.05;;;;;;;;;;491697;28;942;-77
2023/09/07 01:00:41;;;;;;;6.00;4.20;;;;;;;;;;491277;28;1289;-76
2023/09/07 01:00:57;;;;;;;5.70;3.88;;;;;;;;;;495807;28;1244;-76
2023/09/07 01:01:13;;;;;;;4.88;3.72;;;;;;;;;;494359;28;1199;-76
2023/09/07 01:01:30;;;;;;;4.50;3.93;;;;;;;;;;493167;28;1085;-77
2023/09/07 01:01:46;;;;;;;5.10;3.83;;;;;;;;;;494817;28;1148;-76
2023/09/07 01:02:01;;;;;;;6.90;3.87;;;;;;;;;;497046;28;1043;-76
2023/09/07 01:02:18;;;;;;;6.78;3.80;;;;;;;;;;497753;28;1435;-77
2023/09/07 01:02:34;;;;;;;6.22;3.90;;;;;;;;;;495451;28;1184;-77
2023/09/07 01:02:51;;;;;;;6.72;3.88;;;;;;;;;;493348;28;1113;-76
2023/09/07 01:03:08;;;;;;;4.82;4.00;;;;;;;;;;485042;28;1335;-76
2023/09/07 01:03:24;;;;;;;4.78;4.05;;;;;;;;;;485212;28;1220;-76
2023/09/07 01:03:42;;;;;;;4.65;3.92;;;;;;;;;;485898;28;1318;-77
2023/09/07 01:03:59;;;;;;;4.78;3.90;;;;;;;;;;483786;28;1368;-76
2023/09/07 01:04:15;;;;;;;5.95;4.22;;;;;;;;;;488954;28;1304;-76
2023/09/07 01:04:30;;;;;;;6.07;4.22;;;;;;;;;;481466;28;1339;-77
2023/09/07 01:04:46;;;;;;;4.95;3.78;;;;;;;;;;480397;28;1263;-77
2023/09/07 01:05:06;;;;;;;4.22;3.78;;;;;;;;;;479637;28;1267;-76
2023/09/07 01:05:29;;;;;;;6.50;4.28;;;;;;;;;;488757;28;1357;-76
2023/09/07 01:05:58;;;;;;;6.03;4.20;;;;;;;;;;488523;28;1283;-77
2023/09/07 01:06:22;;;;;;;5.40;4.30;;;;;;;;;;491040;28;1342;-76
2023/09/07 01:06:41;;;;;;;5.78;3.90;;;;;;;;;;484704;28;1476;-77
2023/09/07 01:07:24;;;;;;;5.43;4.00;;;;;;;;;;487196;28;1027;-76
2023/09/07 01:07:50;;;;;;;4.60;4.00;;;;;;;;;;473461;29;1452;-77
2023/09/07 01:08:25;;;;;;;4.78;3.70;;;;;;;;;;486399;28;1384;-77
2023/09/07 01:08:48;;;;;;;4.43;4.03;;;;;;;;;;485916;28;969;-77
2023/09/07 01:09:14;;;;;;;4.40;4.00;;;;;;;;;;487231;28;1427;-76
2023/09/07 01:09:34;;;;;;;4.60;4.00;;;;;;;;;;487269;28;1265;-76
2023/09/07 01:09:54;;;;;;;5.97;3.90;;;;;;;;;;486506;28;1387;-76
2023/09/07 01:10:10;;;;;;;6.53;4.20;;;;;;;;;;491853;28;1162;-76
2023/09/07 01:10:27;;;;;;;4.45;3.90;;;;;;;;;;487581;28;1135;-76
2023/09/07 01:10:43;;;;;;;4.53;4.05;;;;;;;;;;483673;28;1338;-77
2023/09/07 01:10:58;;;;;;;4.90;4.40;;;;;;;;;;486143;28;1250;-77
2023/09/07 01:11:22;;;;;;;4.95;4.10;;;;;;;;;;489902;28;1211;-77
2023/09/07 01:11:38;;;;;;;4.97;3.97;;;;;;;;;;482984;28;1297;-76
2023/09/07 01:11:55;;;;;;;4.95;4.05;;;;;;;;;;484208;28;1124;-76
2023/09/07 01:12:15;;;;;;;4.82;4.00;;;;;;;;;;494182;28;1278;-76
2023/09/07 01:12:30;;;;;;;4.65;4.03;;;;;;;;;;487604;28;1192;-77
2023/09/07 01:12:46;;;;;;;4.57;4.00;;;;;;;;;;485749;28;1106;-77
2023/09/07 01:13:02;;;;;;;5.03;3.95;;;;;;;;;;484568;28;1365;-77
2023/09/07 01:13:19;;;;;;;5.77;4.03;;;;;;;;;;489907;28;1249;-76
2023/09/07 01:13:36;;;;;;;5.32;4.10;;;;;;;;;;483940;28;1200;-76
2023/09/07 01:13:56;;;;;;;4.75;4.10;;;;;;;;;;481911;28;1949;-76
2023/09/07 01:14:11;;;;;;;5.00;4.05;;;;;;;;;;491674;28;1167;-76
2023/09/07 01:14:27;;;;;;;5.20;3.95;;;;;;;;;;487680;28;1146;-76
2023/09/07 01:14:43;;;;;;;5.60;4.03;;;;;;;;;;489117;28;1327;-76
2023/09/07 01:14:59;;;;;;;5.13;4.13;;;;;;;;;;485041;28;1357;-76
2023/09/07 01:15:14;;;;;;;5.22;4.07;;;;;;;;;;492254;28;1209;-77
2023/09/07 01:15:30;;;;;;;5.63;4.00;;;;;;;;;;488888;28;1333;-76
2023/09/07 01:15:47;;;;;;;5.53;4.05;;;;;;;;;;487600;28;1420;-77
2023/09/07 01:16:03;;;;;;;4.70;3.90;;;;;;;;;;486670;28;1091;-76
2023/09/07 01:16:21;;;;;;;4.37;3.93;;;;;;;;;;491288;28;1774;-76
2023/09/07 01:16:40;;;;;;;4.93;4.00;;;;;;;;;;482734;28;1407;-76
2023/09/07 01:16:56;;;;;;;5.15;4.00;;;;;;;;;;481711;28;1373;-77
2023/09/07 01:17:13;;;;;;;5.22;3.92;;;;;;;;;;488864;28;1457;-77
2023/09/07 01:17:29;;;;;;;5.88;3.90;;;;;;;;;;481165;28;1240;-77
2023/09/07 01:17:45;;;;;;;5.70;3.90;;;;;;;;;;485149;28;1378;-77
2023/09/07 01:18:02;;;;;;;5.57;4.15;;;;;;;;;;484553;28;975;-77
2023/09/07 01:18:21;;;;;;;5.25;3.97;;;;;;;;;;490781;28;1223;-77
2023/09/07 01:18:39;;;;;;;5.53;3.88;;;;;;;;;;483355;28;1037;-76
2023/09/07 01:18:55;;;;;;;5.82;3.88;;;;;;;;;;485138;28;1212;-76
2023/09/07 01:19:10;;;;;;;5.53;3.83;;;;;;;;;;488947;28;1240;-76
2023/09/07 01:19:26;;;;;;;5.25;3.90;;;;;;;;;;481857;28;1423;-76
2023/09/07 01:19:42;;;;;;;4.50;3.77;;;;;;;;;;482391;28;1322;-76
2023/09/07 01:20:05;;;;;;;5.40;3.83;;;;;;;;;;482296;28;1483;-76
2023/09/07 01:20:23;;;;;;;5.80;4.00;;;;;;;;;;490245;28;1305;-76
2023/09/07 01:20:41;;;;;;;6.10;4.10;;;;;;;;;;485394;28;1510;-77
2023/09/07 01:21:01;;;;;;;6.03;4.28;;;;;;;;;;485305;28;1440;-76
2023/09/07 01:21:18;;;;;;;5.60;4.15;;;;;;;;;;492855;28;1169;-76
2023/09/07 01:21:36;;;;;;;4.90;4.00;;;;;;;;;;485015;28;1405;-76
2023/09/07 01:21:52;;;;;;;5.00;4.00;;;;;;;;;;486524;28;1389;-76
2023/09/07 01:22:09;;;;;;;5.03;4.18;;;;;;;;;;489491;28;1381;-76
2023/09/07 01:22:27;;;;;;;5.32;4.20;;;;;;;;;;488580;28;1111;-76
2023/09/07 01:22:44;;;;;;;4.82;4.03;;;;;;;;;;487578;28;1354;-76
2023/09/07 01:23:02;;;;;;;4.40;4.00;;;;;;;;;;486889;28;1273;-76
2023/09/07 01:23:18;;;;;;;4.68;4.18;;;;;;;;;;495762;28;1418;-76
2023/09/07 01:23:39;;;;;;;5.18;4.10;;;;;;;;;;490749;28;1267;-76
2023/09/07 01:23:57;;;;;;;4.82;4.03;;;;;;;;;;492525;28;1463;-76
2023/09/07 01:24:15;;;;;;;4.72;4.00;;;;;;;;;;497022;28;1325;-77
2023/09/07 01:24:32;;;;;;;4.60;3.85;;;;;;;;;;486760;28;1344;-76
2023/09/07 01:24:50;;;;;;;5.00;3.92;;;;;;;;;;487085;28;1194;-77
2023/09/07 01:25:06;;;;;;;4.88;3.90;;;;;;;;;;487846;28;1293;-78
2023/09/07 01:25:24;;;;;;;4.43;4.03;;;;;;;;;;488072;28;1055;-76
2023/09/07 01:25:42;;;;;;;5.10;4.10;;;;;;;;;;481798;28;1325;-76
2023/09/07 01:25:58;;;;;;;5.55;4.10;;;;;;;;;;482980;28;1364;-76
2023/09/07 01:26:14;;;;;;;4.82;4.00;;;;;;;;;;488623;28;1173;-76
2023/09/07 01:26:30;;;;;;;4.90;3.88;;;;;;;;;;480625;28;1360;-77
2023/09/07 01:26:49;;;;;;;5.13;3.80;;;;;;;;;;480810;28;1351;-76
2023/09/07 01:27:06;;;;;;;5.20;4.00;;;;;;;;;;481627;28;1190;-76
2023/09/07 01:27:22;;;;;;;5.53;4.30;;;;;;;;;;487165;28;1448;-76
2023/09/07 01:27:40;;;;;;;5.90;4.40;;;;;;;;;;483858;28;1185;-76
2023/09/07 01:27:56;;;;;;;5.53;4.28;;;;;;;;;;485130;28;1194;-76
2023/09/07 01:28:11;;;;;;;4.55;4.05;;;;;;;;;;490641;28;1321;-77
2023/09/07 01:28:27;;;;;;;4.47;4.07;;;;;;;;;;486668;28;1219;-76
2023/09/07 01:28:43;;;;;;;4.90;4.25;;;;;;;;;;486615;28;1092;-76
2023/09/07 01:28:59;;;;;;;4.68;4.07;;;;;;;;;;486188;28;1305;-76
2023/09/07 01:29:18;;;;;;;4.55;4.00;;;;;;;;;;488588;28;1254;-76
2023/09/07 01:29:34;;;;;;;5.60;4.03;;;;;;;;;;483191;28;1406;-76
2023/09/07 01:29:52;;;;;;;4.50;3.67;;;;;;;;;;481510;28;1339;-76
2023/09/07 01:30:09;;;;;;;4.43;3.70;;;;;;;;;;483013;28;1151;-76
2023/09/07 01:30:27;;;;;;;5.22;4.03;;;;;;;;;;483244;28;1355;-76
2023/09/07 01:30:43;;;;;;;5.15;3.90;;;;;;;;;;483930;28;1237;-76
2023/09/07 01:30:59;;;;;;;4.50;4.10;;;;;;;;;;479910;28;1232;-76
2023/09/07 01:31:15;;;;;;;4.57;4.18;;;;;;;;;;488270;28;1200;-76
2023/09/07 01:31:37;;;;;;;4.50;4.07;;;;;;;;;;483596;28;1315;-76
2023/09/07 01:31:53;;;;;;;4.97;4.03;;;;;;;;;;484018;28;1365;-76
2023/09/07 01:32:11;;;;;;;4.43;4.00;;;;;;;;;;487956;28;1209;-76
2023/09/07 01:32:27;;;;;;;6.20;4.13;;;;;;;;;;483294;28;1333;-76
2023/09/07 01:32:42;;;;;;;6.57;4.20;;;;;;;;;;481760;28;1385;-76
2023/09/07 01:32:58;;;;;;;4.90;4.13;;;;;;;;;;483324;28;1246;-77
2023/09/07 01:33:14;;;;;;;5.25;4.15;;;;;;;;;;491347;28;1284;-76
2023/09/07 01:33:30;;;;;;;4.95;4.10;;;;;;;;;;485317;28;1322;-76
2023/09/07 01:33:45;;;;;;;5.00;4.30;;;;;;;;;;486020;28;1107;-76
2023/09/07 01:34:01;;;;;;;5.00;4.20;;;;;;;;;;486065;28;1934;-77
2023/09/07 01:34:17;;;;;;;4.38;3.90;;;;;;;;;;497548;28;1175;-76
2023/09/07 01:34:33;;;;;;;4.40;3.90;;;;;;;;;;487192;28;1247;-76
2023/09/07 01:34:50;;;;;;;4.85;4.10;;;;;;;;;;490475;28;1138;-76
2023/09/07 01:35:09;;;;;;;5.85;4.40;;;;;;;;;;487438;28;1344;-76
2023/09/07 01:35:26;;;;;;;5.65;4.43;;;;;;;;;;484712;28;1143;-76
2023/09/07 01:35:42;;;;;;;5.35;4.15;;;;;;;;;;483371;28;1086;-76
2023/09/07 01:35:57;;;;;;;5.30;4.27;;;;;;;;;;484059;28;1187;-76
2023/09/07 01:36:13;;;;;;;5.10;4.22;;;;;;;;;;492678;28;1022;-76
2023/09/07 01:36:30;;;;;;;4.40;3.90;;;;;;;;;;483246;28;1270;-76
2023/09/07 01:36:48;;;;;;;5.53;4.28;;;;;;;;;;485411;28;1112;-76
2023/09/07 01:37:04;;;;;;;5.68;4.50;;;;;;;;;;482376;28;1244;-76
2023/09/07 01:37:20;;;;;;;4.95;4.13;;;;;;;;;;492164;28;1260;-76
2023/09/07 01:37:37;;;;;;;5.20;3.78;;;;;;;;;;482713;28;1267;-76
2023/09/07 01:37:52;;;;;;;4.85;3.90;;;;;;;;;;484622;28;1305;-76
2023/09/07 01:38:08;;;;;;;4.70;4.20;;;;;;;;;;490959;28;1326;-76
2023/09/07 01:38:24;;;;;;;4.85;4.35;;;;;;;;;;490344;28;1263;-77
2023/09/07 01:38:40;;;;;;;4.63;4.20;;;;;;;;;;486106;28;1257;-76
2023/09/07 01:38:55;;;;;;;4.23;3.80;;;;;;;;;;486488;28;1162;-76
2023/09/07 01:39:12;;;;;;;5.50;3.72;;;;;;;;;;488516;28;1255;-76
2023/09/07 01:39:29;;;;;;;5.13;4.05;;;;;;;;;;480297;28;1369;-76
2023/09/07 01:39:45;;;;;;;5.35;4.25;;;;;;;;;;482878;28;939;-76
2023/09/07 01:40:01;;;;;;;5.45;4.18;;;;;;;;;;486081;28;1319;-76
2023/09/07 01:40:16;;;;;;;4.80;4.20;;;;;;;;;;493864;28;1226;-77
2023/09/07 01:40:32;;;;;;;4.95;4.22;;;;;;;;;;484626;28;1070;-77
2023/09/07 01:40:49;;;;;;;5.60;4.10;;;;;;;;;;486623;28;1334;-76
2023/09/07 01:41:05;;;;;;;5.28;4.13;;;;;;;;;;485357;28;1153;-76
2023/09/07 01:41:20;;;;;;;5.20;4.10;;;;;;;;;;490201;28;1284;-76
2023/09/07 01:41:36;;;;;;;5.40;4.10;;;;;;;;;;480014;28;1336;-75
2023/09/07 01:41:52;;;;;;;4.60;4.10;;;;;;;;;;482195;28;1239;-76
2023/09/07 01:42:07;;;;;;;4.90;4.20;;;;;;;;;;485077;28;1074;-76
2023/09/07 01:42:24;;;;;;;5.30;4.20;;;;;;;;;;487018;28;1267;-76
2023/09/07 01:42:40;;;;;;;4.45;3.92;;;;;;;;;;482797;28;1343;-76